createdAt,value
2023-05-14T00:00:22.541Z,96713.44
2023-05-14T00:02:49.102Z,96709.13
2023-05-14T00:05:15.475Z,96715.84
2023-05-14T00:07:41.710Z,96711.28
2023-05-14T00:10:07.957Z,96705.91
2023-05-14T00:12:34.214Z,96707.53
2023-05-14T00:15:00.473Z,96709.41
2023-05-14T00:17:26.763Z,96704.56
2023-05-14T00:19:53.081Z,96706.44
2023-05-14T00:22:19.365Z,96696.78
2023-05-14T00:24:45.617Z,96696.78
2023-05-14T00:27:11.888Z,96692.47
2023-05-14T00:29:38.147Z,96696.78
2023-05-14T00:32:04.513Z,96689.25
2023-05-14T00:34:30.785Z,96688.44
2023-05-14T00:36:57.050Z,96683.34
2023-05-14T00:39:23.323Z,96682.25
2023-05-14T00:41:49.578Z,96679.56
2023-05-14T00:44:15.819Z,96676.34
2023-05-14T00:46:42.141Z,96670.97
2023-05-14T00:49:08.446Z,96665.06
2023-05-14T00:51:34.722Z,96663.72
2023-05-14T00:54:00.999Z,96664.53
2023-05-14T00:56:27.281Z,96663.47
2023-05-14T00:58:53.548Z,96659.16
2023-05-14T01:01:19.814Z,96660.78
2023-05-14T01:03:46.218Z,96665.59
2023-05-14T01:06:12.567Z,96655.13
2023-05-14T01:08:38.812Z,96650.03
2023-05-14T01:11:05.066Z,96656.22
2023-05-14T01:13:31.332Z,96657.00
2023-05-14T01:15:57.610Z,96658.59
2023-05-14T01:18:23.938Z,96647.03
2023-05-14T01:20:50.278Z,96654.28
2023-05-14T01:23:16.595Z,96648.66
2023-05-14T01:25:42.864Z,96651.59
2023-05-14T01:28:09.176Z,96655.88
2023-05-14T01:30:35.522Z,96656.69
2023-05-14T01:33:01.859Z,96651.59
2023-05-14T01:35:28.151Z,96651.84
2023-05-14T01:37:54.397Z,96650.53
2023-05-14T01:40:20.694Z,96651.31
2023-05-14T01:42:47.028Z,96647.84
2023-05-14T01:45:13.302Z,96644.09
2023-05-14T01:47:39.585Z,96650.53
2023-05-14T01:50:05.871Z,96649.19
2023-05-14T01:52:32.171Z,96644.91
2023-05-14T01:54:58.455Z,96646.78
2023-05-14T01:57:24.716Z,96643.28
2023-05-14T01:59:50.980Z,96653.50
2023-05-14T02:02:17.258Z,96650.53
2023-05-14T02:04:43.509Z,96639.53
2023-05-14T02:07:09.797Z,96647.31
2023-05-14T02:09:36.056Z,96650.56
2023-05-14T02:12:02.322Z,96652.97
2023-05-14T02:14:28.601Z,96650.56
2023-05-14T02:16:54.878Z,96649.47
2023-05-14T02:19:21.164Z,96645.19
2023-05-14T02:21:47.441Z,96647.88
2023-05-14T02:24:13.851Z,96645.19
2023-05-14T02:26:40.153Z,96644.09
2023-05-14T02:29:06.434Z,96647.88
2023-05-14T02:31:32.801Z,96650.81
2023-05-14T02:33:59.132Z,96653.22
2023-05-14T02:36:25.420Z,96654.53
2023-05-14T02:38:51.688Z,96653.19
2023-05-14T02:41:17.965Z,96652.34
2023-05-14T02:43:44.233Z,96650.22
2023-05-14T02:46:10.486Z,96648.88
2023-05-14T02:48:36.776Z,96643.50
2023-05-14T02:51:03.072Z,96642.97
2023-05-14T02:53:29.336Z,96639.22
2023-05-14T02:55:55.619Z,96639.22
2023-05-14T02:58:25.371Z,96628.78
2023-05-14T03:00:54.313Z,96636.56
2023-05-14T03:03:21.045Z,96632.50
2023-05-14T03:05:47.750Z,96633.84
2023-05-14T03:08:14.023Z,96632.72
2023-05-14T03:10:40.449Z,96626.31
2023-05-14T03:13:06.697Z,96620.38
2023-05-14T03:15:32.961Z,96623.91
2023-05-14T03:17:59.281Z,96623.38
2023-05-14T03:20:25.797Z,96621.78
2023-05-14T03:22:52.147Z,96624.47
2023-05-14T03:25:18.419Z,96621.78
2023-05-14T03:27:44.699Z,96625.78
2023-05-14T03:30:10.980Z,96631.72
2023-05-14T03:32:37.277Z,96628.78
2023-05-14T03:35:03.609Z,96632.78
2023-05-14T03:37:29.865Z,96627.97
2023-05-14T03:39:56.126Z,96624.22
2023-05-14T03:42:22.411Z,96623.13
2023-05-14T03:44:48.714Z,96622.88
2023-05-14T03:47:14.992Z,96627.44
2023-05-14T03:49:41.298Z,96623.69
2023-05-14T03:52:07.570Z,96628.25
2023-05-14T03:54:33.841Z,96630.13
2023-05-14T03:57:00.114Z,96633.34
2023-05-14T03:59:26.370Z,96634.94
2023-05-14T04:01:52.666Z,96634.69
2023-05-14T04:04:18.979Z,96633.34
2023-05-14T04:06:45.302Z,96631.19
2023-05-14T04:09:11.570Z,96628.25
2023-05-14T04:11:37.843Z,96635.22
2023-05-14T04:14:04.136Z,96631.75
2023-05-14T04:16:30.445Z,96634.41
2023-05-14T04:18:56.823Z,96623.16
2023-05-14T04:21:23.148Z,96625.81
2023-05-14T04:23:49.460Z,96633.63
2023-05-14T04:26:15.743Z,96631.47
2023-05-14T04:28:41.995Z,96628.53
2023-05-14T04:31:08.287Z,96625.28
2023-05-14T04:33:34.590Z,96632.53
2023-05-14T04:36:00.867Z,96631.75
2023-05-14T04:38:27.143Z,96637.09
2023-05-14T04:40:53.417Z,96634.41
2023-05-14T04:43:19.692Z,96633.88
2023-05-14T04:45:46.035Z,96638.19
2023-05-14T04:48:12.334Z,96639.00
2023-05-14T04:50:38.598Z,96642.22
2023-05-14T04:53:04.854Z,96642.22
2023-05-14T04:55:31.125Z,96640.34
2023-05-14T04:57:57.420Z,96642.22
2023-05-14T05:00:23.934Z,96633.34
2023-05-14T05:02:50.529Z,96638.19
2023-05-14T05:05:16.813Z,96643.84
2023-05-14T05:07:43.112Z,96645.69
2023-05-14T05:10:09.375Z,96645.44
2023-05-14T05:12:35.653Z,96652.44
2023-05-14T05:15:01.945Z,96652.44
2023-05-14T05:17:28.304Z,96655.38
2023-05-14T05:19:54.576Z,96655.66
2023-05-14T05:22:20.876Z,96655.63
2023-05-14T05:24:48.593Z,96651.63
2023-05-14T05:27:16.136Z,96658.06
2023-05-14T05:29:42.393Z,96653.50
2023-05-14T05:32:08.662Z,96648.13
2023-05-14T05:34:34.961Z,96653.22
2023-05-14T05:37:01.257Z,96659.13
2023-05-14T05:39:27.532Z,96656.97
2023-05-14T05:41:53.810Z,96654.28
2023-05-14T05:44:20.084Z,96656.69
2023-05-14T05:46:46.364Z,96660.44
2023-05-14T05:49:12.675Z,96657.25
2023-05-14T05:51:38.964Z,96655.34
2023-05-14T05:54:05.235Z,96660.16
2023-05-14T05:56:31.535Z,96658.53
2023-05-14T05:58:57.797Z,96657.19
2023-05-14T06:01:24.097Z,96646.94
2023-05-14T06:03:50.414Z,96657.91
2023-05-14T06:06:16.676Z,96663.25
2023-05-14T06:08:42.974Z,96660.34
2023-05-14T06:11:09.249Z,96661.47
2023-05-14T06:13:35.517Z,96650.75
2023-05-14T06:16:01.816Z,96655.28
2023-05-14T06:18:28.191Z,96655.84
2023-05-14T06:20:54.505Z,96659.63
2023-05-14T06:23:20.795Z,96654.00
2023-05-14T06:25:48.932Z,96653.75
2023-05-14T06:28:16.334Z,96651.06
2023-05-14T06:30:42.600Z,96656.97
2023-05-14T06:33:08.872Z,96655.38
2023-05-14T06:35:35.224Z,96648.69
2023-05-14T06:38:01.480Z,96656.47
2023-05-14T06:40:27.810Z,96657.81
2023-05-14T06:42:54.083Z,96654.34
2023-05-14T06:45:20.377Z,96662.66
2023-05-14T06:47:46.712Z,96660.78
2023-05-14T06:50:12.996Z,96665.06
2023-05-14T06:52:39.251Z,96667.75
2023-05-14T06:55:05.536Z,96665.59
2023-05-14T06:57:31.821Z,96675.28
2023-05-14T06:59:58.100Z,96664.00
2023-05-14T07:02:24.437Z,96664.00
2023-05-14T07:04:50.738Z,96673.41
2023-05-14T07:07:16.997Z,96670.97
2023-05-14T07:09:43.269Z,96671.50
2023-05-14T07:12:09.530Z,96676.34
2023-05-14T07:14:35.779Z,96672.06
2023-05-14T07:17:02.143Z,96662.94
2023-05-14T07:19:28.412Z,96666.13
2023-05-14T07:21:54.690Z,96661.31
2023-05-14T07:24:20.968Z,96663.19
2023-05-14T07:26:47.221Z,96654.06
2023-05-14T07:29:13.532Z,96656.19
2023-05-14T07:31:39.836Z,96657.25
2023-05-14T07:34:06.098Z,96651.06
2023-05-14T07:36:32.381Z,96663.94
2023-05-14T07:38:58.645Z,96656.41
2023-05-14T07:41:24.927Z,96656.41
2023-05-14T07:43:51.202Z,96645.09
2023-05-14T07:46:17.460Z,96651.53
2023-05-14T07:48:43.789Z,96652.91
2023-05-14T07:51:10.081Z,96651.00
2023-05-14T07:53:36.354Z,96646.16
2023-05-14T07:56:02.613Z,96647.22
2023-05-14T07:58:28.860Z,96643.44
2023-05-14T08:00:55.133Z,96643.41
2023-05-14T08:03:21.517Z,96642.03
2023-05-14T08:05:47.885Z,96642.53
2023-05-14T08:08:14.151Z,96646.03
2023-05-14T08:10:40.420Z,96642.03
2023-05-14T08:13:06.721Z,96648.97
2023-05-14T08:15:32.981Z,96638.72
2023-05-14T08:17:59.300Z,96645.97
2023-05-14T08:20:25.811Z,96634.09
2023-05-14T08:22:52.414Z,96636.22
2023-05-14T08:25:18.663Z,96629.19
2023-05-14T08:27:44.905Z,96631.28
2023-05-14T08:30:11.207Z,96635.31
2023-05-14T08:32:37.499Z,96625.84
2023-05-14T08:35:03.777Z,96623.63
2023-05-14T08:37:30.051Z,96624.16
2023-05-14T08:39:56.326Z,96627.09
2023-05-14T08:42:22.581Z,96614.41
2023-05-14T08:44:48.857Z,96612.22
2023-05-14T08:47:15.170Z,96611.63
2023-05-14T08:49:41.454Z,96608.03
2023-05-14T08:52:07.749Z,96606.09
2023-05-14T08:54:34.072Z,96593.53
2023-05-14T08:57:00.354Z,96601.00
2023-05-14T08:59:26.641Z,96599.81
2023-05-14T09:01:52.933Z,96599.16
2023-05-14T09:04:19.301Z,96601.97
2023-05-14T09:06:45.626Z,96600.25
2023-05-14T09:09:11.904Z,96595.47
2023-05-14T09:11:38.154Z,96599.16
2023-05-14T09:14:04.434Z,96589.59
2023-05-14T09:16:30.748Z,96591.66
2023-05-14T09:18:57.064Z,96594.22
2023-05-14T09:21:23.343Z,96592.03
2023-05-14T09:23:49.609Z,96590.63
2023-05-14T09:26:15.864Z,96591.66
2023-05-14T09:28:42.117Z,96594.53
2023-05-14T09:31:08.427Z,96588.31
2023-05-14T09:33:34.714Z,96589.13
2023-05-14T09:36:00.986Z,96580.28
2023-05-14T09:38:27.272Z,96586.06
2023-05-14T09:40:53.539Z,96583.59
2023-05-14T09:43:19.824Z,96586.44
2023-05-14T09:45:46.096Z,96579.56
2023-05-14T09:48:12.514Z,96572.38
2023-05-14T09:50:38.821Z,96577.22
2023-05-14T09:53:05.094Z,96578.09
2023-05-14T09:55:31.343Z,96574.81
2023-05-14T09:57:57.598Z,96570.00
2023-05-14T10:00:24.049Z,96568.44
2023-05-14T10:02:50.515Z,96569.28
2023-05-14T10:05:16.802Z,96570.59
2023-05-14T10:07:43.062Z,96571.59
2023-05-14T10:10:09.364Z,96567.63
2023-05-14T10:12:35.634Z,96562.91
2023-05-14T10:15:01.931Z,96559.81
2023-05-14T10:17:28.230Z,96568.03
2023-05-14T10:19:54.536Z,96569.44
2023-05-14T10:22:20.803Z,96558.06
2023-05-14T10:24:47.041Z,96563.69
2023-05-14T10:27:13.282Z,96559.00
2023-05-14T10:29:39.559Z,96562.22
2023-05-14T10:32:05.873Z,96560.81
2023-05-14T10:34:32.161Z,96562.13
2023-05-14T10:36:58.502Z,96556.88
2023-05-14T10:39:24.792Z,96556.09
2023-05-14T10:41:51.099Z,96555.06
2023-05-14T10:44:17.350Z,96551.47
2023-05-14T10:46:43.724Z,96551.28
2023-05-14T10:49:10.050Z,96550.47
2023-05-14T10:51:36.382Z,96561.31
2023-05-14T10:54:02.720Z,96554.63
2023-05-14T10:56:28.985Z,96548.00
2023-05-14T10:58:55.249Z,96557.50
2023-05-14T11:01:21.566Z,96555.53
2023-05-14T11:03:47.853Z,96553.63
2023-05-14T11:06:14.134Z,96557.34
2023-05-14T11:08:40.417Z,96554.94
2023-05-14T11:11:06.741Z,96554.03
2023-05-14T11:13:33.013Z,96553.13
2023-05-14T11:16:02.283Z,96549.78
2023-05-14T11:18:35.486Z,96542.88
2023-05-14T11:21:01.783Z,96547.97
2023-05-14T11:23:31.086Z,96532.94
2023-05-14T11:25:57.372Z,96547.38
2023-05-14T11:28:23.649Z,96544.97
2023-05-14T11:30:49.917Z,96539.16
2023-05-14T11:33:16.291Z,96533.16
2023-05-14T11:35:42.625Z,96533.25
2023-05-14T11:38:09.336Z,96542.06
2023-05-14T11:40:35.669Z,96535.16
2023-05-14T11:43:01.949Z,96528.72
2023-05-14T11:45:28.243Z,96530.13
2023-05-14T11:47:54.535Z,96525.81
2023-05-14T11:50:20.802Z,96525.41
2023-05-14T11:52:47.085Z,96520.50
2023-05-14T11:55:14.402Z,96521.59
2023-05-14T11:57:40.685Z,96517.19
2023-05-14T12:00:06.959Z,96520.38
2023-05-14T12:02:33.261Z,96519.09
2023-05-14T12:04:59.573Z,96510.28
2023-05-14T12:07:25.852Z,96513.31
2023-05-14T12:09:52.133Z,96508.09
2023-05-14T12:12:18.404Z,96505.56
2023-05-14T12:14:44.654Z,96509.19
2023-05-14T12:17:10.918Z,96510.47
2023-05-14T12:19:37.243Z,96506.97
2023-05-14T12:22:03.525Z,96512.81
2023-05-14T12:24:29.802Z,96512.19
2023-05-14T12:26:56.048Z,96513.31
2023-05-14T12:29:22.333Z,96510.69
2023-05-14T12:31:48.687Z,96504.66
2023-05-14T12:34:15.005Z,96502.81
2023-05-14T12:36:41.277Z,96497.56
2023-05-14T12:39:07.563Z,96501.06
2023-05-14T12:41:33.810Z,96494.66
2023-05-14T12:44:00.158Z,96487.59
2023-05-14T12:46:26.500Z,96489.00
2023-05-14T12:48:53.431Z,96491.94
2023-05-14T12:51:19.874Z,96486.03
2023-05-14T12:53:46.156Z,96485.22
2023-05-14T12:56:12.415Z,96487.94
2023-05-14T12:58:38.714Z,96479.16
2023-05-14T13:01:05.051Z,96486.66
2023-05-14T13:03:31.404Z,96488.75
2023-05-14T13:05:57.758Z,96479.31
2023-05-14T13:08:24.065Z,96478.09
2023-05-14T13:10:50.350Z,96480.06
2023-05-14T13:13:16.597Z,96471.78
2023-05-14T13:15:42.877Z,96465.88
2023-05-14T13:18:09.182Z,96470.19
2023-05-14T13:20:35.516Z,96467.63
2023-05-14T13:23:01.812Z,96467.94
2023-05-14T13:25:28.069Z,96455.66
2023-05-14T13:27:54.334Z,96459.81
2023-05-14T13:30:20.607Z,96460.09
2023-05-14T13:32:46.880Z,96455.00
2023-05-14T13:35:13.163Z,96450.53
2023-05-14T13:37:39.414Z,96457.38
2023-05-14T13:40:05.675Z,96453.22
2023-05-14T13:42:31.955Z,96447.31
2023-05-14T13:44:58.248Z,96456.41
2023-05-14T13:47:24.526Z,96450.50
2023-05-14T13:49:50.830Z,96446.31
2023-05-14T13:52:17.110Z,96446.94
2023-05-14T13:54:43.380Z,96443.94
2023-05-14T13:57:09.658Z,96441.91
2023-05-14T13:59:35.949Z,96438.09
2023-05-14T14:02:02.275Z,96438.31
2023-05-14T14:04:28.582Z,96440.06
2023-05-14T14:06:54.904Z,96445.66
2023-05-14T14:09:21.235Z,96446.63
2023-05-14T14:11:47.504Z,96442.78
2023-05-14T14:14:13.791Z,96446.31
2023-05-14T14:16:40.101Z,96442.31
2023-05-14T14:19:06.435Z,96442.31
2023-05-14T14:21:32.764Z,96434.97
2023-05-14T14:23:59.074Z,96435.91
2023-05-14T14:26:25.345Z,96430.50
2023-05-14T14:28:51.617Z,96432.56
2023-05-14T14:31:17.912Z,96428.41
2023-05-14T14:33:44.239Z,96427.94
2023-05-14T14:36:10.483Z,96436.25
2023-05-14T14:38:36.738Z,96441.19
2023-05-14T14:41:03.017Z,96441.50
2023-05-14T14:43:29.306Z,96438.97
2023-05-14T14:45:55.633Z,96437.19
2023-05-14T14:48:21.982Z,96431.53
2023-05-14T14:50:48.241Z,96429.91
2023-05-14T14:53:14.504Z,96424.81
2023-05-14T14:55:40.772Z,96436.81
2023-05-14T14:58:07.142Z,96429.28
2023-05-14T15:00:33.397Z,96436.97
2023-05-14T15:02:59.742Z,96431.06
2023-05-14T15:05:26.256Z,96433.66
2023-05-14T15:07:52.658Z,96435.13
2023-05-14T15:10:18.983Z,96432.06
2023-05-14T15:12:45.253Z,96430.63
2023-05-14T15:15:11.628Z,96425.97
2023-05-14T15:17:37.988Z,96423.41
2023-05-14T15:20:04.332Z,96429.59
2023-05-14T15:22:30.631Z,96427.19
2023-05-14T15:24:56.900Z,96428.94
2023-05-14T15:27:23.303Z,96431.53
2023-05-14T15:29:49.642Z,96424.03
2023-05-14T15:32:15.915Z,96423.06
2023-05-14T15:34:42.175Z,96429.25
2023-05-14T15:37:08.446Z,96430.06
2023-05-14T15:39:34.717Z,96434.22
2023-05-14T15:42:00.979Z,96432.16
2023-05-14T15:44:27.241Z,96437.78
2023-05-14T15:46:53.629Z,96436.91
2023-05-14T15:49:19.952Z,96434.19
2023-05-14T15:51:46.206Z,96433.97
2023-05-14T15:54:12.454Z,96429.72
2023-05-14T15:56:38.768Z,96433.72
2023-05-14T15:59:05.034Z,96423.34
2023-05-14T16:01:31.292Z,96429.25
2023-05-14T16:03:57.751Z,96433.41
2023-05-14T16:06:24.087Z,96427.34
2023-05-14T16:08:50.343Z,96426.72
2023-05-14T16:11:16.631Z,96423.00
2023-05-14T16:13:42.876Z,96426.53
2023-05-14T16:16:09.191Z,96425.06
2023-05-14T16:18:35.552Z,96423.75
2023-05-14T16:21:01.887Z,96429.28
2023-05-14T16:23:28.186Z,96420.81
2023-05-14T16:25:54.507Z,96427.84
2023-05-14T16:28:20.810Z,96426.00
2023-05-14T16:30:47.083Z,96425.88
2023-05-14T16:33:13.347Z,96421.94
2023-05-14T16:35:39.613Z,96424.94
2023-05-14T16:38:05.940Z,96421.31
2023-05-14T16:40:32.225Z,96423.75
2023-05-14T16:42:58.494Z,96439.41
2023-05-14T16:45:25.103Z,96439.28
2023-05-14T16:47:51.574Z,96443.94
2023-05-14T16:50:18.085Z,96456.81
2023-05-14T16:52:44.378Z,96455.41
2023-05-14T16:55:10.657Z,96452.34
2023-05-14T16:57:36.938Z,96447.78
2023-05-14T17:00:03.218Z,96456.78
2023-05-14T17:02:29.495Z,96458.16
2023-05-14T17:04:55.901Z,96463.50
2023-05-14T17:07:22.289Z,96453.88
2023-05-14T17:09:48.545Z,96450.47
2023-05-14T17:12:14.848Z,96458.09
2023-05-14T17:14:41.095Z,96470.38
2023-05-14T17:17:07.346Z,96470.00
2023-05-14T17:19:33.639Z,96475.66
2023-05-14T17:21:59.905Z,96485.25
2023-05-14T17:24:26.191Z,96475.59
2023-05-14T17:26:52.442Z,96482.69
2023-05-14T17:29:18.721Z,96489.59
2023-05-14T17:31:45.075Z,96491.22
2023-05-14T17:34:11.450Z,96502.28
2023-05-14T17:36:37.742Z,96506.53
2023-05-14T17:39:04.027Z,96506.94
2023-05-14T17:41:30.305Z,96511.19
2023-05-14T17:43:56.567Z,96506.50
2023-05-14T17:46:22.905Z,96509.41
2023-05-14T17:48:49.197Z,96506.53
2023-05-14T17:51:15.569Z,96508.00
2023-05-14T17:53:41.833Z,96511.03
2023-05-14T17:56:08.096Z,96503.19
2023-05-14T17:58:34.354Z,96511.63
2023-05-14T18:01:00.693Z,96508.22
2023-05-14T18:03:27.260Z,96510.91
2023-05-14T18:05:53.675Z,96516.16
2023-05-14T18:08:19.922Z,96522.66
2023-05-14T18:10:46.176Z,96520.41
2023-05-14T18:13:12.422Z,96520.06
2023-05-14T18:15:38.687Z,96522.56
2023-05-14T18:18:05.056Z,96524.59
2023-05-14T18:20:32.794Z,96530.47
2023-05-14T18:23:00.434Z,96538.72
2023-05-14T18:25:26.778Z,96543.16
2023-05-14T18:27:53.121Z,96542.47
2023-05-14T18:30:19.422Z,96555.69
2023-05-14T18:32:45.776Z,96565.59
2023-05-14T18:35:12.085Z,96565.72
2023-05-14T18:37:38.364Z,96575.94
2023-05-14T18:40:04.708Z,96577.97
2023-05-14T18:42:31.036Z,96576.00
2023-05-14T18:44:57.285Z,96583.44
2023-05-14T18:47:23.619Z,96586.44
2023-05-14T18:49:49.883Z,96594.06
2023-05-14T18:52:16.166Z,96593.78
2023-05-14T18:54:42.434Z,96599.50
2023-05-14T18:57:08.727Z,96609.41
2023-05-14T18:59:35.059Z,96594.00
2023-05-14T19:02:01.450Z,96586.44
2023-05-14T19:04:27.791Z,96592.72
2023-05-14T19:06:54.059Z,96602.03
2023-05-14T19:09:20.330Z,96607.75
2023-05-14T19:11:46.616Z,96611.47
2023-05-14T19:14:12.889Z,96619.25
2023-05-14T19:16:39.133Z,96617.63
2023-05-14T19:19:05.445Z,96617.22
2023-05-14T19:21:31.759Z,96628.22
2023-05-14T19:23:58.069Z,96636.06
2023-05-14T19:26:24.338Z,96644.28
2023-05-14T19:28:50.589Z,96640.03
2023-05-14T19:31:16.910Z,96636.81
2023-05-14T19:33:43.202Z,96642.72
2023-05-14T19:36:09.459Z,96631.13
2023-05-14T19:38:36.015Z,96629.28
2023-05-14T19:41:02.332Z,96630.97
2023-05-14T19:43:28.604Z,96641.75
2023-05-14T19:45:54.897Z,96647.06
2023-05-14T19:48:21.169Z,96652.19
2023-05-14T19:50:47.447Z,96668.84
2023-05-14T19:53:13.689Z,96666.28
2023-05-14T19:55:39.960Z,96665.47
2023-05-14T19:58:06.238Z,96679.84
2023-05-14T20:00:32.497Z,96676.94
2023-05-14T20:03:00.630Z,96671.63
2023-05-14T20:05:27.475Z,96673.50
2023-05-14T20:07:54.467Z,96681.69
2023-05-14T20:10:20.744Z,96685.75
2023-05-14T20:12:47.006Z,96692.47
2023-05-14T20:15:13.273Z,96691.66
2023-05-14T20:17:39.607Z,96687.63
2023-05-14T20:20:05.968Z,96687.09
2023-05-14T20:22:32.363Z,96685.75
2023-05-14T20:24:58.616Z,96685.75
2023-05-14T20:27:24.903Z,96681.47
2023-05-14T20:29:51.189Z,96675.28
2023-05-14T20:32:17.473Z,96683.06
2023-05-14T20:34:43.722Z,96673.94
2023-05-14T20:37:10.025Z,96660.50
2023-05-14T20:39:36.378Z,96653.78
2023-05-14T20:42:02.688Z,96658.63
2023-05-14T20:44:28.956Z,96663.44
2023-05-14T20:46:55.209Z,96665.88
2023-05-14T20:49:21.528Z,96663.72
2023-05-14T20:51:47.854Z,96661.31
2023-05-14T20:54:14.123Z,96655.38
2023-05-14T20:56:40.379Z,96662.38
2023-05-14T20:59:06.658Z,96656.16
2023-05-14T21:01:32.985Z,96658.56
2023-05-14T21:03:59.554Z,96660.19
2023-05-14T21:06:25.990Z,96657.47
2023-05-14T21:08:52.237Z,96652.38
2023-05-14T21:11:18.565Z,96657.50
2023-05-14T21:13:44.880Z,96656.41
2023-05-14T21:16:11.155Z,96664.72
2023-05-14T21:18:37.430Z,96664.44
2023-05-14T21:21:03.699Z,96667.94
2023-05-14T21:23:29.989Z,96664.94
2023-05-14T21:25:56.253Z,96663.31
2023-05-14T21:28:22.512Z,96656.88
2023-05-14T21:30:48.797Z,96653.63
2023-05-14T21:33:15.042Z,96641.53
2023-05-14T21:35:41.302Z,96656.31
2023-05-14T21:38:07.623Z,96656.31
2023-05-14T21:40:33.888Z,96658.44
2023-05-14T21:43:00.176Z,96646.09
2023-05-14T21:45:26.569Z,96655.50
2023-05-14T21:47:52.974Z,96652.78
2023-05-14T21:50:19.275Z,96648.22
2023-05-14T21:52:45.557Z,96645.78
2023-05-14T21:55:11.831Z,96642.28
2023-05-14T21:57:38.106Z,96647.69
2023-05-14T22:00:04.369Z,96643.38
2023-05-14T22:02:30.711Z,96638.28
2023-05-14T22:04:56.968Z,96633.69
2023-05-14T22:07:23.228Z,96635.03
2023-05-14T22:09:50.264Z,96627.22
2023-05-14T22:12:16.595Z,96630.19
2023-05-14T22:14:42.836Z,96631.53
2023-05-14T22:17:09.090Z,96625.34
2023-05-14T22:19:35.409Z,96631.81
2023-05-14T22:22:01.660Z,96630.44
2023-05-14T22:24:27.914Z,96634.22
2023-05-14T22:26:54.194Z,96629.09
2023-05-14T22:29:20.471Z,96633.19
2023-05-14T22:31:46.747Z,96628.59
2023-05-14T22:34:13.039Z,96628.59
2023-05-14T22:36:39.311Z,96637.75
2023-05-14T22:39:05.590Z,96637.25
2023-05-14T22:41:31.848Z,96633.72
2023-05-14T22:43:58.145Z,96631.06
2023-05-14T22:46:24.467Z,96638.94
2023-05-14T22:48:50.782Z,96638.97
2023-05-14T22:51:17.040Z,96637.34
2023-05-14T22:53:43.314Z,96636.00
2023-05-14T22:56:09.560Z,96641.88
2023-05-14T22:58:35.836Z,96640.53
2023-05-14T23:01:02.109Z,96633.25
2023-05-14T23:03:28.393Z,96629.75
2023-05-14T23:05:54.693Z,96629.50
2023-05-14T23:08:20.978Z,96626.78
2023-05-14T23:10:47.254Z,96638.34
2023-05-14T23:13:13.498Z,96630.03
2023-05-14T23:15:39.790Z,96620.59
2023-05-14T23:18:06.139Z,96627.06
2023-05-14T23:20:32.507Z,96623.00
2023-05-14T23:22:58.792Z,96622.19
2023-05-14T23:25:25.274Z,96618.44
2023-05-14T23:27:51.708Z,96617.88
2023-05-14T23:30:17.972Z,96614.41
2023-05-14T23:32:44.279Z,96605.81
2023-05-14T23:35:10.608Z,96611.47
2023-05-14T23:37:36.938Z,96600.44
2023-05-14T23:40:03.186Z,96597.47
2023-05-14T23:42:29.453Z,96600.97
2023-05-14T23:44:55.742Z,96606.38
2023-05-14T23:47:22.026Z,96604.50
2023-05-14T23:49:48.310Z,96612.34
2023-05-14T23:52:14.595Z,96619.13
2023-05-14T23:54:40.859Z,96620.19
2023-05-14T23:57:07.169Z,96612.69
2023-05-14T23:59:33.460Z,96617.25
